sensor_id;sensor_type;location;lat;lon;timestamp;P1;P2;P0
53698;PMS7003;39591;53.952;27.612;2023-02-11T00:01:55;14.1;11.7;7.8
53698;PMS7003;39591;53.952;27.612;2023-02-11T00:06:47;15.5;11.9;8.4
53698;PMS7003;39591;53.952;27.612;2023-02-11T00:11:45;13.3;9.8;7.5
53698;PMS7003;39591;53.952;27.612;2023-02-11T00:16:57;15.4;11.4;7.5
53698;PMS7003;39591;53.952;27.612;2023-02-11T00:21:20;16.3;12;8.2
53698;PMS7003;39591;53.952;27.612;2023-02-11T00:26:43;15.3;11.7;8.1
53698;PMS7003;39591;53.952;27.612;2023-02-11T00:31:07;14.4;11.2;8.2
53698;PMS7003;39591;53.952;27.612;2023-02-11T00:36:45;17;10.9;7.6
53698;PMS7003;39591;53.952;27.612;2023-02-11T00:41:33;16.2;10.9;7.2
53698;PMS7003;39591;53.952;27.612;2023-02-11T00:46:25;14.5;10.3;7.3
53698;PMS7003;39591;53.952;27.612;2023-02-11T00:51:35;15.6;11.9;8.4
53698;PMS7003;39591;53.952;27.612;2023-02-11T00:56:59;16.3;12.7;9.1
53698;PMS7003;39591;53.952;27.612;2023-02-11T01:01:43;14.2;9.5;6.8
53698;PMS7003;39591;53.952;27.612;2023-02-11T01:06:33;15.6;12.4;8.8
53698;PMS7003;39591;53.952;27.612;2023-02-11T01:11:33;16.2;13.2;9.2
53698;PMS7003;39591;53.952;27.612;2023-02-11T01:16:07;17.5;13.2;9.2
53698;PMS7003;39591;53.952;27.612;2023-02-11T01:21:43;16.3;11.9;8.3
53698;PMS7003;39591;53.952;27.612;2023-02-11T01:26:31;17.4;13.9;10
53698;PMS7003;39591;53.952;27.612;2023-02-11T01:31:31;21.2;14.3;9.4
53698;PMS7003;39591;53.952;27.612;2023-02-11T01:36:07;18.9;13.7;9.2
53698;PMS7003;39591;53.952;27.612;2023-02-11T01:41:57;18.5;15.3;10.7
53698;PMS7003;39591;53.952;27.612;2023-02-11T01:46:30;20.6;15.4;11.1
53698;PMS7003;39591;53.952;27.612;2023-02-11T01:51:45;21.8;15.4;10.8
53698;PMS7003;39591;53.952;27.612;2023-02-11T01:56:29;22.5;17.4;12.4
53698;PMS7003;39591;53.952;27.612;2023-02-11T02:01:12;22.6;17.3;10.9
53698;PMS7003;39591;53.952;27.612;2023-02-11T02:06:36;23.6;18.1;12.4
53698;PMS7003;39591;53.952;27.612;2023-02-11T02:11:07;23.1;18.7;12.3
53698;PMS7003;39591;53.952;27.612;2023-02-11T02:16:45;22.9;18.5;12.9
53698;PMS7003;39591;53.952;27.612;2023-02-11T02:21:17;22.8;18.3;12.2
53698;PMS7003;39591;53.952;27.612;2023-02-11T02:31:39;27.4;20.8;13.5
53698;PMS7003;39591;53.952;27.612;2023-02-11T02:36:59;26.5;20;13.4
53698;PMS7003;39591;53.952;27.612;2023-02-11T02:41:33;24.1;18.4;11.9
53698;PMS7003;39591;53.952;27.612;2023-02-11T02:46:43;26.8;21.2;14.3
53698;PMS7003;39591;53.952;27.612;2023-02-11T02:51:30;24.2;18.9;13.3
53698;PMS7003;39591;53.952;27.612;2023-02-11T02:56:07;23.2;16.8;10.8
53698;PMS7003;39591;53.952;27.612;2023-02-11T03:01:37;22.5;18;12.2
53698;PMS7003;39591;53.952;27.612;2023-02-11T03:06:22;25.2;19.3;12.7
53698;PMS7003;39591;53.952;27.612;2023-02-11T03:11:57;24.4;19.3;12.9
53698;PMS7003;39591;53.952;27.612;2023-02-11T03:16:57;25;19.5;13.3
53698;PMS7003;39591;53.952;27.612;2023-02-11T03:21:33;25.9;18.7;12.4
53698;PMS7003;39591;53.952;27.612;2023-02-11T03:27:00;25.4;20;13.4
53698;PMS7003;39591;53.952;27.612;2023-02-11T03:31:58;27.6;21;13.4
53698;PMS7003;39591;53.952;27.612;2023-02-11T03:36:07;31.2;24.5;15.5
53698;PMS7003;39591;53.952;27.612;2023-02-11T03:41:07;28.6;20.9;15.2
53698;PMS7003;39591;53.952;27.612;2023-02-11T03:46:59;32.1;23.6;16.1
53698;PMS7003;39591;53.952;27.612;2023-02-11T03:51:33;34.1;26.2;15.8
53698;PMS7003;39591;53.952;27.612;2023-02-11T03:56:07;33.1;26.6;16.8
53698;PMS7003;39591;53.952;27.612;2023-02-11T04:01:07;35.2;24.3;15.8
53698;PMS7003;39591;53.952;27.612;2023-02-11T04:06:35;29.6;23.5;14.6
53698;PMS7003;39591;53.952;27.612;2023-02-11T04:11:07;30.9;24.4;15.7
53698;PMS7003;39591;53.952;27.612;2023-02-11T04:16:33;28.7;21.5;13.9
53698;PMS7003;39591;53.952;27.612;2023-02-11T04:21:57;26.6;21.4;14.4
53698;PMS7003;39591;53.952;27.612;2023-02-11T04:26:43;26.9;20.7;14.5
53698;PMS7003;39591;53.952;27.612;2023-02-11T04:31:57;26.1;21.8;14
53698;PMS7003;39591;53.952;27.612;2023-02-11T04:36:07;27.3;21.9;15.2
53698;PMS7003;39591;53.952;27.612;2023-02-11T04:41:45;26.1;21.5;14.4
53698;PMS7003;39591;53.952;27.612;2023-02-11T04:46:07;25.5;18.9;12.6
53698;PMS7003;39591;53.952;27.612;2023-02-11T04:51:07;25.2;20.7;14
53698;PMS7003;39591;53.952;27.612;2023-02-11T04:56:33;28.9;23.8;15.8
53698;PMS7003;39591;53.952;27.612;2023-02-11T05:01:43;23.9;18.6;13.3
53698;PMS7003;39591;53.952;27.612;2023-02-11T05:06:57;22.9;17.1;10.7
53698;PMS7003;39591;53.952;27.612;2023-02-11T05:11:07;24.5;17.7;12.1
53698;PMS7003;39591;53.952;27.612;2023-02-11T05:16:59;29.3;21.7;14.3
53698;PMS7003;39591;53.952;27.612;2023-02-11T05:21:07;25;20.9;14
53698;PMS7003;39591;53.952;27.612;2023-02-11T05:26:45;20.8;15.8;11.9
53698;PMS7003;39591;53.952;27.612;2023-02-11T05:31:21;24.9;19.6;12.6
53698;PMS7003;39591;53.952;27.612;2023-02-11T05:36:45;26.3;20;14.2
53698;PMS7003;39591;53.952;27.612;2023-02-11T05:41:21;24.9;20.9;14.4
53698;PMS7003;39591;53.952;27.612;2023-02-11T05:46:43;25.7;20.4;13.8
53698;PMS7003;39591;53.952;27.612;2023-02-11T05:51:43;20.7;16.1;11.1
53698;PMS7003;39591;53.952;27.612;2023-02-11T05:56:59;23.2;17.9;11.2
53698;PMS7003;39591;53.952;27.612;2023-02-11T06:01:55;24;19.8;14
53698;PMS7003;39591;53.952;27.612;2023-02-11T06:06:43;26.1;19.2;13
53698;PMS7003;39591;53.952;27.612;2023-02-11T06:11:47;23.9;18.9;13.3
53698;PMS7003;39591;53.952;27.612;2023-02-11T06:16:35;22.5;18.8;13.3
53698;PMS7003;39591;53.952;27.612;2023-02-11T06:21:31;24.3;18.5;12.9
53698;PMS7003;39591;53.952;27.612;2023-02-11T06:26:07;23.9;18.4;12.8
53698;PMS7003;39591;53.952;27.612;2023-02-11T06:31:41;25;20.8;13.8
53698;PMS7003;39591;53.952;27.612;2023-02-11T06:36:33;24.9;19.6;14.2
53698;PMS7003;39591;53.952;27.612;2023-02-11T06:41:43;23;19.1;13.9
53698;PMS7003;39591;53.952;27.612;2023-02-11T06:46:46;20.6;15.3;10
53698;PMS7003;39591;53.952;27.612;2023-02-11T06:51:55;24.3;18.8;12.8
53698;PMS7003;39591;53.952;27.612;2023-02-11T06:56:57;20.6;16.7;11.6
53698;PMS7003;39591;53.952;27.612;2023-02-11T07:01:21;18.6;16.6;12.1
53698;PMS7003;39591;53.952;27.612;2023-02-11T07:06:57;18.2;14.7;10.4
53698;PMS7003;39591;53.952;27.612;2023-02-11T07:11:22;21.2;17;11.8
53698;PMS7003;39591;53.952;27.612;2023-02-11T07:16:59;20.9;17.4;11.9
53698;PMS7003;39591;53.952;27.612;2023-02-11T07:21:45;21.2;15.5;10.3
53698;PMS7003;39591;53.952;27.612;2023-02-11T07:26:47;22.3;16.9;11.2
53698;PMS7003;39591;53.952;27.612;2023-02-11T07:31:33;23.3;18.1;12.7
53698;PMS7003;39591;53.952;27.612;2023-02-11T07:36:57;26.1;19.2;13
53698;PMS7003;39591;53.952;27.612;2023-02-11T07:41:35;24.2;19.3;12.5
53698;PMS7003;39591;53.952;27.612;2023-02-11T07:46:57;27.7;22.1;14
53698;PMS7003;39591;53.952;27.612;2023-02-11T07:51:43;30.5;22.6;16.3
53698;PMS7003;39591;53.952;27.612;2023-02-11T07:56:07;27.7;21.7;14.7
53698;PMS7003;39591;53.952;27.612;2023-02-11T08:01:08;19.2;16.1;10.8
53698;PMS7003;39591;53.952;27.612;2023-02-11T08:06:21;28.1;22.1;15.5
53698;PMS7003;39591;53.952;27.612;2023-02-11T08:11:43;27;20.6;14.1
53698;PMS7003;39591;53.952;27.612;2023-02-11T08:16:45;24;19.5;13.5
53698;PMS7003;39591;53.952;27.612;2023-02-11T08:21:33;23.3;18.4;12.5
53698;PMS7003;39591;53.952;27.612;2023-02-11T08:26:08;19.3;15.4;9.8
53698;PMS7003;39591;53.952;27.612;2023-02-11T08:31:44;19.6;15.4;10.6
53698;PMS7003;39591;53.952;27.612;2023-02-11T08:36:20;23.3;17.6;12.6
53698;PMS7003;39591;53.952;27.612;2023-02-11T08:41:43;20.1;16.7;11.5
53698;PMS7003;39591;53.952;27.612;2023-02-11T08:46:19;18.8;16;11.5
53698;PMS7003;39591;53.952;27.612;2023-02-11T08:51:18;16;12.8;9.6
53698;PMS7003;39591;53.952;27.612;2023-02-11T08:56:21;17.8;14.2;10
53698;PMS7003;39591;53.952;27.612;2023-02-11T09:01:20;19.2;15.4;11
53698;PMS7003;39591;53.952;27.612;2023-02-11T09:06:55;19.5;15.2;10.3
53698;PMS7003;39591;53.952;27.612;2023-02-11T09:11:55;19.9;16.4;11.5
53698;PMS7003;39591;53.952;27.612;2023-02-11T09:16:07;18;14;10.1
53698;PMS7003;39591;53.952;27.612;2023-02-11T09:21:53;20.3;16.1;11.7
53698;PMS7003;39591;53.952;27.612;2023-02-11T09:26:55;18.1;12.3;8.9
53698;PMS7003;39591;53.952;27.612;2023-02-11T09:31:19;18.7;15.9;11.7
53698;PMS7003;39591;53.952;27.612;2023-02-11T09:36:35;19;16.2;12
53698;PMS7003;39591;53.952;27.612;2023-02-11T09:42:07;18.4;14.9;10.5
53698;PMS7003;39591;53.952;27.612;2023-02-11T09:46:21;21.1;17.4;11.7
53698;PMS7003;39591;53.952;27.612;2023-02-11T09:51:11;19.5;16;11.5
53698;PMS7003;39591;53.952;27.612;2023-02-11T09:56:09;21.1;16.9;11.4
53698;PMS7003;39591;53.952;27.612;2023-02-11T10:01:44;18.5;14.3;10.2
53698;PMS7003;39591;53.952;27.612;2023-02-11T10:06:48;16.9;13.9;9.8
53698;PMS7003;39591;53.952;27.612;2023-02-11T10:11:35;20.9;16.6;11.8
53698;PMS7003;39591;53.952;27.612;2023-02-11T10:16:24;18.9;15.1;10.2
53698;PMS7003;39591;53.952;27.612;2023-02-11T10:21:35;18.5;14.7;10.7
53698;PMS7003;39591;53.952;27.612;2023-02-11T10:26:45;16;13.5;9.6
53698;PMS7003;39591;53.952;27.612;2023-02-11T10:31:34;18.2;16.6;12.3
53698;PMS7003;39591;53.952;27.612;2023-02-11T10:36:45;17.8;14.5;10.5
53698;PMS7003;39591;53.952;27.612;2023-02-11T10:41:08;20.1;14.9;10.6
53698;PMS7003;39591;53.952;27.612;2023-02-11T10:46:33;17.6;14.5;10.5
53698;PMS7003;39591;53.952;27.612;2023-02-11T10:51:23;17.6;14.6;10.6
53698;PMS7003;39591;53.952;27.612;2023-02-11T10:56:43;13.7;11;8.7
53698;PMS7003;39591;53.952;27.612;2023-02-11T11:01:47;17.2;14.4;10.1
53698;PMS7003;39591;53.952;27.612;2023-02-11T11:06:33;14;10.1;7
53698;PMS7003;39591;53.952;27.612;2023-02-11T11:11:59;15.9;11.7;9.2
53698;PMS7003;39591;53.952;27.612;2023-02-11T11:16:31;11.9;8.8;7
53698;PMS7003;39591;53.952;27.612;2023-02-11T11:21:45;10.2;8;5.6
53698;PMS7003;39591;53.952;27.612;2023-02-11T11:26:38;13.1;8.8;6.7
53698;PMS7003;39591;53.952;27.612;2023-02-11T11:31:46;14.7;11.2;8.8
53698;PMS7003;39591;53.952;27.612;2023-02-11T11:36:19;13.2;10.6;8.1
53698;PMS7003;39591;53.952;27.612;2023-02-11T11:41:33;11.7;9.5;7.1
53698;PMS7003;39591;53.952;27.612;2023-02-11T11:46:45;15.1;12.1;9.5
53698;PMS7003;39591;53.952;27.612;2023-02-11T11:51:41;8.7;6.6;4.9
53698;PMS7003;39591;53.952;27.612;2023-02-11T11:56:58;11.7;8.9;6.7
53698;PMS7003;39591;53.952;27.612;2023-02-11T12:01:29;12.2;8.9;6.9
53698;PMS7003;39591;53.952;27.612;2023-02-11T12:07:01;15.3;12.5;9.9
53698;PMS7003;39591;53.952;27.612;2023-02-11T12:11:22;10.4;8.4;6.2
53698;PMS7003;39591;53.952;27.612;2023-02-11T12:16:35;12.5;9.6;7.7
53698;PMS7003;39591;53.952;27.612;2023-02-11T12:21:11;14.1;12.1;9
53698;PMS7003;39591;53.952;27.612;2023-02-11T12:26:09;10.8;8.3;6.5
53698;PMS7003;39591;53.952;27.612;2023-02-11T12:31:30;11.6;8.8;6.9
53698;PMS7003;39591;53.952;27.612;2023-02-11T12:36:48;10.1;8.6;6.8
53698;PMS7003;39591;53.952;27.612;2023-02-11T12:41:14;11;8.8;6.8
53698;PMS7003;39591;53.952;27.612;2023-02-11T12:46:58;11.1;9.1;7.3
53698;PMS7003;39591;53.952;27.612;2023-02-11T12:52:03;12.5;10.2;7.6
53698;PMS7003;39591;53.952;27.612;2023-02-11T12:56:45;10.3;7.6;6
53698;PMS7003;39591;53.952;27.612;2023-02-11T13:01:55;9.3;7.1;5.4
53698;PMS7003;39591;53.952;27.612;2023-02-11T13:06:08;11.6;9.1;6.9
53698;PMS7003;39591;53.952;27.612;2023-02-11T13:11:44;10.8;9.1;7.1
53698;PMS7003;39591;53.952;27.612;2023-02-11T13:16:21;10.2;8.7;6.4
53698;PMS7003;39591;53.952;27.612;2023-02-11T13:21:49;10.7;8.4;6.7
53698;PMS7003;39591;53.952;27.612;2023-02-11T13:26:36;10.6;8.3;6.9
53698;PMS7003;39591;53.952;27.612;2023-02-11T13:31:55;9.6;7.3;5.5
53698;PMS7003;39591;53.952;27.612;2023-02-11T13:36:35;12.2;8.8;7.3
53698;PMS7003;39591;53.952;27.612;2023-02-11T13:42:00;11.2;9;6.9
53698;PMS7003;39591;53.952;27.612;2023-02-11T13:46:07;11.6;9.8;7.6
53698;PMS7003;39591;53.952;27.612;2023-02-11T13:51:34;14.3;11.5;9
53698;PMS7003;39591;53.952;27.612;2023-02-11T13:56:34;11.6;9.8;8
53698;PMS7003;39591;53.952;27.612;2023-02-11T14:02:27;11.7;9.1;7.1
53698;PMS7003;39591;53.952;27.612;2023-02-11T14:06:58;11;8.8;6.8
53698;PMS7003;39591;53.952;27.612;2023-02-11T14:11:51;9.3;7.9;6.4
53698;PMS7003;39591;53.952;27.612;2023-02-11T14:16:31;9.1;7.4;6.1
53698;PMS7003;39591;53.952;27.612;2023-02-11T14:21:19;9.9;7.6;6.2
53698;PMS7003;39591;53.952;27.612;2023-02-11T14:26:57;8;6.5;5.3
53698;PMS7003;39591;53.952;27.612;2023-02-11T14:31:07;7.2;5.5;4.5
53698;PMS7003;39591;53.952;27.612;2023-02-11T14:36:53;5.6;4.5;3.6
53698;PMS7003;39591;53.952;27.612;2023-02-11T14:41:37;7.7;6;4.9
53698;PMS7003;39591;53.952;27.612;2023-02-11T14:46:08;4.8;3.4;2.6
53698;PMS7003;39591;53.952;27.612;2023-02-11T14:51:17;7.2;6;4.7
53698;PMS7003;39591;53.952;27.612;2023-02-11T14:56:15;5.3;3.9;3.2
53698;PMS7003;39591;53.952;27.612;2023-02-11T15:01:41;6.6;5.1;4.2
53698;PMS7003;39591;53.952;27.612;2023-02-11T15:06:11;7;5.4;4.1
53698;PMS7003;39591;53.952;27.612;2023-02-11T15:11:37;6.3;4.2;3.5
53698;PMS7003;39591;53.952;27.612;2023-02-11T15:16:33;6;4.3;3.2
53698;PMS7003;39591;53.952;27.612;2023-02-11T15:21:59;5.3;3.4;2.7
53698;PMS7003;39591;53.952;27.612;2023-02-11T15:26:11;7.9;6.2;5.1
53698;PMS7003;39591;53.952;27.612;2023-02-11T15:31:39;7.4;5.5;4.5
53698;PMS7003;39591;53.952;27.612;2023-02-11T15:36:08;6.1;5.1;4.2
53698;PMS7003;39591;53.952;27.612;2023-02-11T15:41:31;5.7;4.1;3.5
53698;PMS7003;39591;53.952;27.612;2023-02-11T15:46:17;4.8;3.8;3.1
53698;PMS7003;39591;53.952;27.612;2023-02-11T15:51:09;6.2;5.2;4.2
53698;PMS7003;39591;53.952;27.612;2023-02-11T15:56:58;6.2;4.9;3.9
53698;PMS7003;39591;53.952;27.612;2023-02-11T16:02:03;6.9;5;4.3
53698;PMS7003;39591;53.952;27.612;2023-02-11T16:06:35;6.3;5.1;4.3
53698;PMS7003;39591;53.952;27.612;2023-02-11T16:11:59;7;6;5
53698;PMS7003;39591;53.952;27.612;2023-02-11T16:16:57;6.4;4.7;3.6
53698;PMS7003;39591;53.952;27.612;2023-02-11T16:21:35;6.9;5.7;4.5
53698;PMS7003;39591;53.952;27.612;2023-02-11T16:26:33;5.7;5;4.4
53698;PMS7003;39591;53.952;27.612;2023-02-11T16:32:05;6.9;4.9;4.2
53698;PMS7003;39591;53.952;27.612;2023-02-11T16:36:09;5.4;4.6;3.6
53698;PMS7003;39591;53.952;27.612;2023-02-11T16:41:17;7.1;5.1;4
53698;PMS7003;39591;53.952;27.612;2023-02-11T16:46:35;5.9;4.5;3.6
53698;PMS7003;39591;53.952;27.612;2023-02-11T16:51:57;7.6;5.9;4.8
53698;PMS7003;39591;53.952;27.612;2023-02-11T16:56:47;7;5.3;4.3
53698;PMS7003;39591;53.952;27.612;2023-02-11T17:01:27;6.1;5.2;4.2
53698;PMS7003;39591;53.952;27.612;2023-02-11T17:06:57;6.2;4;3.3
53698;PMS7003;39591;53.952;27.612;2023-02-11T17:11:43;4.9;3.9;3.1
53698;PMS7003;39591;53.952;27.612;2023-02-11T17:16:46;5.9;4.8;4.1
53698;PMS7003;39591;53.952;27.612;2023-02-11T17:21:07;6.4;4.2;3.2
53698;PMS7003;39591;53.952;27.612;2023-02-11T17:26:45;5.1;4.1;3.4
53698;PMS7003;39591;53.952;27.612;2023-02-11T17:31:27;4.6;3.7;2.9
53698;PMS7003;39591;53.952;27.612;2023-02-11T17:36:07;8.7;7;5.3
53698;PMS7003;39591;53.952;27.612;2023-02-11T17:41:45;5.6;4.5;3.5
53698;PMS7003;39591;53.952;27.612;2023-02-11T17:46:45;5.2;3.9;2.8
53698;PMS7003;39591;53.952;27.612;2023-02-11T17:51:59;3.4;2.8;2.1
53698;PMS7003;39591;53.952;27.612;2023-02-11T17:56:21;3.3;2.4;1.8
53698;PMS7003;39591;53.952;27.612;2023-02-11T18:01:49;4.3;2.8;2.2
53698;PMS7003;39591;53.952;27.612;2023-02-11T18:06:19;3.1;2.2;1.9
53698;PMS7003;39591;53.952;27.612;2023-02-11T18:11:33;3;2;1.6
53698;PMS7003;39591;53.952;27.612;2023-02-11T18:16:08;1.1;0.7;0.6
53698;PMS7003;39591;53.952;27.612;2023-02-11T18:21:45;1.5;1;0.9
53698;PMS7003;39591;53.952;27.612;2023-02-11T18:26:07;1.5;0.6;0.6
53698;PMS7003;39591;53.952;27.612;2023-02-11T18:31:53;0.9;0.5;0.3
53698;PMS7003;39591;53.952;27.612;2023-02-11T18:36:45;1.1;0.4;0.3
53698;PMS7003;39591;53.952;27.612;2023-02-11T18:41:59;0.7;0.1;0.1
53698;PMS7003;39591;53.952;27.612;2023-02-11T18:46:57;0.5;0.3;0.2
53698;PMS7003;39591;53.952;27.612;2023-02-11T18:51:43;0.3;0.2;0.1
53698;PMS7003;39591;53.952;27.612;2023-02-11T18:56:57;0.5;0.1;0.1
53698;PMS7003;39591;53.952;27.612;2023-02-11T19:01:23;0.4;0.1;0
53698;PMS7003;39591;53.952;27.612;2023-02-11T19:06:35;0.1;0;0
53698;PMS7003;39591;53.952;27.612;2023-02-11T19:11:07;0.4;0;0
53698;PMS7003;39591;53.952;27.612;2023-02-11T19:16:58;0.3;0.1;0
53698;PMS7003;39591;53.952;27.612;2023-02-11T19:21:23;0;0;0
53698;PMS7003;39591;53.952;27.612;2023-02-11T19:26:43;0.3;0;0
53698;PMS7003;39591;53.952;27.612;2023-02-11T19:31:41;0;0;0
53698;PMS7003;39591;53.952;27.612;2023-02-11T19:36:57;0.3;0;0
53698;PMS7003;39591;53.952;27.612;2023-02-11T19:41:59;0.2;0.1;0
53698;PMS7003;39591;53.952;27.612;2023-02-11T19:46:29;0;0;0
53698;PMS7003;39591;53.952;27.612;2023-02-11T19:51:57;0;0;0
53698;PMS7003;39591;53.952;27.612;2023-02-11T19:56:33;0.4;0;0
53698;PMS7003;39591;53.952;27.612;2023-02-11T20:01:39;0;0;0
53698;PMS7003;39591;53.952;27.612;2023-02-11T20:06:08;0;0;0
53698;PMS7003;39591;53.952;27.612;2023-02-11T20:11:33;0.2;0;0
53698;PMS7003;39591;53.952;27.612;2023-02-11T20:16:33;0.4;0;0
53698;PMS7003;39591;53.952;27.612;2023-02-11T20:21:57;0.3;0;0
53698;PMS7003;39591;53.952;27.612;2023-02-11T20:26:47;0;0;0
53698;PMS7003;39591;53.952;27.612;2023-02-11T20:31:57;0;0;0
53698;PMS7003;39591;53.952;27.612;2023-02-11T20:36:45;0.2;0;0
53698;PMS7003;39591;53.952;27.612;2023-02-11T20:41:22;0.8;0;0
53698;PMS7003;39591;53.952;27.612;2023-02-11T20:46:36;0.3;0;0
53698;PMS7003;39591;53.952;27.612;2023-02-11T20:51:08;0.1;0;0
53698;PMS7003;39591;53.952;27.612;2023-02-11T20:56:45;0.3;0;0
53698;PMS7003;39591;53.952;27.612;2023-02-11T21:01:07;0.8;0;0
53698;PMS7003;39591;53.952;27.612;2023-02-11T21:06:30;0.4;0;0
53698;PMS7003;39591;53.952;27.612;2023-02-11T21:11:21;0.3;0.1;0.1
53698;PMS7003;39591;53.952;27.612;2023-02-11T21:16:59;0.3;0.3;0.2
53698;PMS7003;39591;53.952;27.612;2023-02-11T21:21:35;0.6;0.1;0.1
53698;PMS7003;39591;53.952;27.612;2023-02-11T21:26:31;0.4;0.1;0.1
53698;PMS7003;39591;53.952;27.612;2023-02-11T21:31:18;0.3;0.1;0
53698;PMS7003;39591;53.952;27.612;2023-02-11T21:36:08;0.6;0;0
53698;PMS7003;39591;53.952;27.612;2023-02-11T21:41:35;0.2;0.1;0
53698;PMS7003;39591;53.952;27.612;2023-02-11T21:46:07;0.7;0.1;0
53698;PMS7003;39591;53.952;27.612;2023-02-11T21:51:59;0.3;0.1;0
53698;PMS7003;39591;53.952;27.612;2023-02-11T21:56:57;0.2;0.1;0
53698;PMS7003;39591;53.952;27.612;2023-02-11T22:01:20;0.6;0.2;0.1
53698;PMS7003;39591;53.952;27.612;2023-02-11T22:06:49;0.8;0.1;0
53698;PMS7003;39591;53.952;27.612;2023-02-11T22:11:57;0.2;0;0
53698;PMS7003;39591;53.952;27.612;2023-02-11T22:16:19;0.2;0.1;0
53698;PMS7003;39591;53.952;27.612;2023-02-11T22:21:21;0.2;0.1;0
53698;PMS7003;39591;53.952;27.612;2023-02-11T22:26:59;0.3;0.1;0
53698;PMS7003;39591;53.952;27.612;2023-02-11T22:31:24;0.5;0.3;0.1
53698;PMS7003;39591;53.952;27.612;2023-02-11T22:36:08;0;0;0
53698;PMS7003;39591;53.952;27.612;2023-02-11T22:41:08;0.6;0.1;0
53698;PMS7003;39591;53.952;27.612;2023-02-11T22:46:43;0.3;0.3;0.1
53698;PMS7003;39591;53.952;27.612;2023-02-11T22:51:45;0.4;0.1;0
53698;PMS7003;39591;53.952;27.612;2023-02-11T22:56:31;1.4;0.1;0
53698;PMS7003;39591;53.952;27.612;2023-02-11T23:01:53;0.2;0;0
53698;PMS7003;39591;53.952;27.612;2023-02-11T23:06:17;0.1;0;0
53698;PMS7003;39591;53.952;27.612;2023-02-11T23:11:45;0.8;0.2;0
53698;PMS7003;39591;53.952;27.612;2023-02-11T23:16:08;0.4;0.1;0.1
53698;PMS7003;39591;53.952;27.612;2023-02-11T23:21:57;0;0;0
53698;PMS7003;39591;53.952;27.612;2023-02-11T23:26:08;1;0.1;0
53698;PMS7003;39591;53.952;27.612;2023-02-11T23:31:11;0.2;0.1;0.1
53698;PMS7003;39591;53.952;27.612;2023-02-11T23:36:35;0.3;0;0
53698;PMS7003;39591;53.952;27.612;2023-02-11T23:41:45;0.1;0;0
53698;PMS7003;39591;53.952;27.612;2023-02-11T23:46:57;0.3;0.2;0.1
53698;PMS7003;39591;53.952;27.612;2023-02-11T23:51:33;0.6;0.1;0
53698;PMS7003;39591;53.952;27.612;2023-02-11T23:56:59;0.9;0.3;0.1
